Cadiz, Indiana
Current Conditions -  °F | °C
As of 5:53 PM on Saturday 25 Oct 2014 (Local Time) from KMIE Reporting Station
Clear Clear  
Wind Chill: 70°   Ceiling: Unl
Heat Index: 70°   Visibility: 10mi
Dew Point: 47°   Wind: 9mph
Humidity: 44%   Direction: 290°WNW
Pressure: 29.9"   Gusts: NA
Location:  39.9231°N, 85.3444°W
Report Text: KMIE 252153Z 29008KT 10SM CLR 21/08 A2990 RMK AO2 SLP119 T02110083
Loading
Personal Weather Stations






























Interactive Weather Map
Tropical Storm Tracking
New forecast layout! Learn more

10-Day Weather Forecast

Advertisements
Track Severe Weather on mobile